Time;durP1;ratioP1;P1;durP2;ratioP2;P2;SDS_P1;SDS_P2;PMS_P1;PMS_P2;Temp;Humidity;BMP_temperature;BMP_pressure;BME280_temperature;BME280_humidity;BME280_pressure;Samples;Min_cycle;Max_cycle;Signal;HPM_P1;HPM_P2
2022/05/27 00:01:22;;;;;;;3.03;1.20;;;;;;;13.24;69.49;100721.69;4980350;28;20113;-42
2022/05/27 00:03:50;;;;;;;3.97;1.58;;;;;;;13.26;69.80;100719.09;4978645;28;20058;-45
2022/05/27 00:06:17;;;;;;;5.72;1.80;;;;;;;13.27;70.36;100721.69;4987200;28;20134;-47
2022/05/27 00:08:45;;;;;;;4.50;1.42;;;;;;;13.28;70.15;100720.84;4987435;28;20141;-44
2022/05/27 00:11:12;;;;;;;5.68;1.60;;;;;;;13.29;70.66;100719.97;4984010;28;20636;-48
2022/05/27 00:13:40;;;;;;;4.25;1.58;;;;;;;13.31;69.98;100720.81;4984442;28;20050;-43
2022/05/27 00:16:08;;;;;;;4.55;1.75;;;;;;;13.31;71.03;100722.56;4984506;28;20505;-45
2022/05/27 00:18:36;;;;;;;5.13;1.92;;;;;;;13.31;70.88;100723.41;4978081;28;20061;-45
2022/05/27 00:21:03;;;;;;;4.03;1.80;;;;;;;13.30;70.29;100721.69;4987165;28;20542;-43
2022/05/27 00:23:31;;;;;;;4.95;1.55;;;;;;;13.29;69.78;100722.56;4973535;28;20054;-42
2022/05/27 00:25:58;;;;;;;6.22;2.13;;;;;;;13.26;70.79;100712.16;4979624;28;20052;-45
2022/05/27 00:28:26;;;;;;;5.35;1.60;;;;;;;13.27;70.04;100720.84;4977124;28;20056;-42
2022/05/27 00:30:53;;;;;;;3.83;1.60;;;;;;;13.27;71.06;100721.69;4986322;28;20087;-44
2022/05/27 00:33:20;;;;;;;5.55;1.92;;;;;;;13.25;71.08;100718.25;4982049;28;20206;-46
2022/05/27 00:35:47;;;;;;;4.95;1.65;;;;;;;13.24;71.05;100716.50;4982720;28;20053;-42
2022/05/27 00:38:15;;;;;;;5.13;1.83;;;;;;;13.21;70.74;100719.13;4990380;28;20078;-44
2022/05/27 00:40:47;;;;;;;6.80;1.90;;;;;;;13.17;69.92;100709.59;4983303;28;20512;-48
2022/05/27 00:43:31;;;;;;;6.30;1.90;;;;;;;13.12;70.46;100717.41;4974014;28;20096;-46
2022/05/27 00:48:37;;;;;;;8.05;3.25;;;;;;;13.53;70.56;100728.59;5029384;28;20420;-42
2022/05/27 00:51:14;;;;;;;6.65;3.30;;;;;;;13.18;71.32;100726.94;4993371;28;20129;-42
2022/05/27 00:53:53;;;;;;;6.97;3.13;;;;;;;13.07;71.39;100720.00;4987769;28;20066;-45
2022/05/27 00:56:23;;;;;;;7.03;2.97;;;;;;;13.06;70.68;100718.28;4997629;28;20058;-44
2022/05/27 00:58:55;;;;;;;6.07;3.25;;;;;;;13.00;72.10;100723.50;4990605;28;20053;-44
2022/05/27 01:01:23;;;;;;;7.55;3.80;;;;;;;12.98;70.89;100714.84;4997343;28;20065;-42
2022/05/27 01:03:51;;;;;;;6.97;4.10;;;;;;;12.94;71.07;100726.13;4995166;28;20046;-45
2022/05/27 01:06:18;;;;;;;7.88;3.55;;;;;;;12.90;72.03;100722.66;4997204;28;20081;-43
2022/05/27 01:08:45;;;;;;;4.40;1.80;;;;;;;12.88;71.32;100739.13;4982906;28;20646;-42
2022/05/27 01:14:18;;;;;;;7.80;2.20;;;;;;;12.75;71.72;100739.13;5029271;28;20405;-40
2022/05/27 01:16:57;;;;;;;7.50;2.70;;;;;;;12.75;71.32;100744.34;5021692;28;20052;-42
2022/05/27 01:25:20;;;;;;;7.80;2.50;;;;;;;12.64;71.59;100735.69;5044596;28;20402;-45
2022/05/27 01:30:34;;;;;;;6.30;3.28;;;;;;;12.65;71.13;100747.78;5071633;27;20393;-44
2022/05/27 01:33:14;;;;;;;6.90;3.58;;;;;;;12.63;70.78;100745.19;5021915;28;20141;-44
2022/05/27 01:36:14;;;;;;;5.97;3.15;;;;;;;12.56;71.53;100740.84;5022265;28;20045;-42
2022/05/27 01:44:11;;;;;;;6.65;2.92;;;;;;;12.74;72.58;100747.81;5025129;27;20398;-43
2022/05/27 01:46:43;;;;;;;5.85;2.13;;;;;;;12.70;71.78;100756.47;5005013;28;20811;-46
2022/05/27 01:52:19;;;;;;;6.35;1.77;;;;;;;12.62;71.92;100765.97;5048523;28;20390;-45
2022/05/27 01:55:27;;;;;;;6.63;2.65;;;;;;;12.58;71.67;100754.72;5039084;28;20057;-46
2022/05/27 02:03:25;;;;;;;9.88;5.20;;;;;;;12.50;71.21;100765.09;5031300;28;20072;-49
2022/05/27 02:06:02;;;;;;;8.25;4.38;;;;;;;12.45;71.37;100764.25;5037335;28;20052;-42
2022/05/27 02:08:41;;;;;;;8.73;2.83;;;;;;;12.39;72.04;100761.66;5029322;28;20436;-39
2022/05/27 02:11:15;;;;;;;6.95;4.88;;;;;;;12.36;72.03;100772.03;5026338;28;20076;-42
2022/05/27 02:19:00;;;;;;;5.43;2.17;;;;;;;12.24;71.41;100778.94;5053377;27;20888;-43
2022/05/27 02:21:33;;;;;;;7.32;2.40;;;;;;;12.19;72.24;100780.66;5022964;28;20054;-42
2022/05/27 02:24:06;;;;;;;6.63;2.97;;;;;;;12.13;71.14;100778.91;5021744;28;20052;-46
2022/05/27 02:26:39;;;;;;;7.28;2.85;;;;;;;12.08;71.23;100775.44;5026360;28;20410;-41
2022/05/27 02:29:11;;;;;;;6.60;2.75;;;;;;;12.04;71.05;100777.13;5023734;28;20041;-44
2022/05/27 02:31:41;;;;;;;7.85;2.10;;;;;;;11.97;71.53;100775.38;5026488;28;20054;-44
2022/05/27 02:37:07;;;;;;;9.30;2.05;;;;;;;11.81;71.19;100777.91;5023515;28;19921;-45
2022/05/27 02:39:35;;;;;;;5.68;1.38;;;;;;;11.80;70.79;100777.91;5025815;28;20417;-44
2022/05/27 02:48:14;;;;;;;6.95;1.50;;;;;;;11.63;70.34;100783.03;5040751;27;20408;-41
2022/05/27 02:58:48;;;;;;;7.15;1.73;;;;;;;11.45;69.68;100795.03;5056213;27;20412;-44
2022/05/27 03:01:16;;;;;;;7.88;1.50;;;;;;;11.37;70.05;100795.00;5074903;28;20128;-42
2022/05/27 03:03:43;;;;;;;6.22;1.40;;;;;;;11.31;69.96;100793.25;5047939;28;20041;-50
2022/05/27 03:06:49;;;;;;;7.55;1.60;;;;;;;11.19;70.22;100790.56;5043909;28;20758;-44
2022/05/27 03:09:22;;;;;;;6.57;1.77;;;;;;;11.17;69.47;100781.91;5042265;28;20045;-48
2022/05/27 03:15:07;;;;;;;5.35;2.53;;;;;;;10.99;68.92;100793.00;5063292;28;20391;-45
2022/05/27 03:18:13;;;;;;;6.90;2.38;;;;;;;10.89;68.87;100797.25;5048680;28;20045;-43
2022/05/27 03:31:51;;;;;;;15.75;1.52;;;;;;;10.69;68.25;100816.09;5035118;27;20406;-40
2022/05/27 03:34:28;;;;;;;6.25;1.75;;;;;;;10.64;68.24;100822.97;5029399;28;20045;-42
2022/05/27 03:40:09;;;;;;;11.68;2.22;;;;;;;10.52;67.63;100823.69;5074096;27;20385;-44
2022/05/27 03:42:38;;;;;;;5.93;2.13;;;;;;;10.52;68.69;100819.41;5022132;28;20516;-42
2022/05/27 03:45:11;;;;;;;11.38;2.20;;;;;;;10.49;68.18;100819.38;5039094;28;20045;-43
2022/05/27 03:47:39;;;;;;;5.70;2.22;;;;;;;10.47;67.56;100820.22;5038043;28;20045;-44
2022/05/27 03:50:09;;;;;;;9.77;1.67;;;;;;;10.45;67.62;100825.38;5070615;28;20451;-45
2022/05/27 03:52:40;;;;;;;10.57;3.25;;;;;;;10.42;68.25;100827.88;5045381;28;20041;-41
2022/05/27 03:55:10;;;;;;;5.20;1.52;;;;;;;10.36;67.77;100827.81;5042521;28;20118;-44
2022/05/27 03:57:37;;;;;;;5.70;2.08;;;;;;;10.34;67.83;100834.72;5042029;28;20041;-44
2022/05/27 04:00:06;;;;;;;8.85;2.40;;;;;;;10.28;68.03;100828.63;5041419;28;20068;-42
2022/05/27 04:02:33;;;;;;;5.60;2.75;;;;;;;10.25;68.00;100828.59;5042401;28;20049;-45
2022/05/27 04:05:00;;;;;;;6.00;2.28;;;;;;;10.23;68.08;100832.88;5042615;28;20045;-45
2022/05/27 04:07:27;;;;;;;8.32;2.50;;;;;;;10.20;67.82;100840.59;5045909;28;20485;-45
2022/05/27 04:09:54;;;;;;;6.75;2.72;;;;;;;10.16;68.06;100841.41;5037145;28;20092;-46
2022/05/27 04:12:21;;;;;;;6.95;2.38;;;;;;;10.13;67.77;100833.59;5031233;28;20037;-48
2022/05/27 04:14:50;;;;;;;7.82;2.28;;;;;;;10.12;67.96;100829.28;5035436;28;20046;-45
2022/05/27 04:17:33;;;;;;;5.88;2.22;;;;;;;10.09;67.92;100829.25;5033515;28;20476;-45
2022/05/27 04:20:04;;;;;;;7.32;2.13;;;;;;;10.06;67.89;100834.41;5038938;28;20052;-41
2022/05/27 04:22:31;;;;;;;5.03;1.80;;;;;;;10.03;68.12;100830.91;5030758;28;20056;-45
2022/05/27 04:24:58;;;;;;;11.27;2.08;;;;;;;10.03;68.09;100838.69;5033555;28;20049;-43
2022/05/27 04:27:27;;;;;;;10.68;1.92;;;;;;;9.99;67.89;100839.50;5032272;28;20164;-42
2022/05/27 04:29:54;;;;;;;7.00;2.60;;;;;;;9.98;67.80;100847.22;5035210;28;20103;-43
2022/05/27 04:32:22;;;;;;;7.93;2.60;;;;;;;9.95;67.43;100845.47;5034731;28;20053;-41
2022/05/27 04:34:49;;;;;;;9.70;1.98;;;;;;;9.93;67.77;100849.75;5034397;28;20060;-43
2022/05/27 04:37:18;;;;;;;15.88;2.65;;;;;;;9.92;68.00;100858.38;5034926;28;20099;-43
2022/05/27 04:39:44;;;;;;;6.63;1.92;;;;;;;9.90;67.32;100855.75;5033902;28;20045;-47
2022/05/27 04:42:12;;;;;;;6.45;2.22;;;;;;;9.90;67.24;100860.09;5026021;28;20063;-40
2022/05/27 04:44:39;;;;;;;10.85;2.40;;;;;;;9.90;66.84;100865.25;5035446;28;20482;-42
2022/05/27 04:47:08;;;;;;;8.77;1.30;;;;;;;9.90;66.19;100870.44;5034255;28;20444;-45
2022/05/27 04:49:58;;;;;;;10.95;2.60;;;;;;;9.89;66.27;100866.97;5028399;28;20069;-42
2022/05/27 04:52:29;;;;;;;8.82;1.20;;;;;;;9.90;66.18;100875.63;5017483;28;21001;-43
2022/05/27 04:54:58;;;;;;;9.13;2.70;;;;;;;9.91;66.19;100879.94;5021381;28;20049;-43
2022/05/27 04:57:33;;;;;;;6.07;2.33;;;;;;;9.91;65.49;100879.94;5018405;28;20052;-45
2022/05/27 05:00:03;;;;;;;6.93;1.33;;;;;;;9.98;65.92;100884.34;5017519;28;20437;-45
2022/05/27 05:02:30;;;;;;;7.53;1.85;;;;;;;10.01;66.14;100879.22;5007363;28;20052;-43
2022/05/27 05:05:03;;;;;;;10.75;1.65;;;;;;;10.07;65.66;100881.00;5021724;28;20116;-43
2022/05/27 05:07:31;;;;;;;8.70;2.10;;;;;;;10.13;65.68;100883.66;5020418;28;20045;-49
2022/05/27 05:09:58;;;;;;;6.57;1.83;;;;;;;10.21;65.38;100886.38;5012698;28;20053;-45
2022/05/27 05:12:24;;;;;;;9.07;2.10;;;;;;;10.27;65.81;100883.81;5018941;28;20107;-47
2022/05/27 05:14:53;;;;;;;9.82;2.78;;;;;;;10.36;65.32;100897.72;5018970;28;20042;-48
2022/05/27 05:17:21;;;;;;;11.60;1.67;;;;;;;10.42;65.58;100897.81;5020732;28;20115;-47
2022/05/27 05:19:48;;;;;;;8.32;2.58;;;;;;;10.52;65.78;100902.28;5016519;28;20053;-44
2022/05/27 05:22:15;;;;;;;12.00;2.63;;;;;;;10.62;65.30;100908.44;5018774;28;20046;-45
2022/05/27 05:24:41;;;;;;;11.43;2.30;;;;;;;10.73;64.88;100911.13;5018849;28;20468;-48
2022/05/27 05:27:08;;;;;;;12.77;2.53;;;;;;;10.83;65.03;100911.22;5016035;28;20060;-45
2022/05/27 05:29:35;;;;;;;7.35;2.38;;;;;;;10.94;64.10;100925.16;5023514;28;20212;-46
2022/05/27 05:32:04;;;;;;;8.07;1.98;;;;;;;11.03;64.72;100914.91;5021479;28;20707;-43
2022/05/27 05:34:31;;;;;;;8.63;2.03;;;;;;;11.14;63.74;100922.75;5020076;28;20045;-44
2022/05/27 05:36:58;;;;;;;8.77;2.97;;;;;;;11.23;64.29;100927.16;5020783;28;20068;-45
2022/05/27 05:39:25;;;;;;;5.82;2.85;;;;;;;11.31;63.41;100920.31;5017576;28;20144;-43
2022/05/27 05:42:02;;;;;;;9.75;2.42;;;;;;;11.43;62.75;100921.28;5023015;28;20042;-43
2022/05/27 05:44:30;;;;;;;7.00;2.00;;;;;;;11.52;62.70;100913.53;5017759;28;20081;-46
2022/05/27 05:46:58;;;;;;;6.32;2.58;;;;;;;11.64;62.33;100917.09;5016681;28;20048;-46
2022/05/27 05:49:26;;;;;;;10.52;2.80;;;;;;;11.73;61.74;100911.97;5017621;28;20081;-46
2022/05/27 05:51:54;;;;;;;10.05;2.10;;;;;;;11.78;61.37;100906.78;5023636;28;20067;-46
2022/05/27 05:54:23;;;;;;;11.10;2.75;;;;;;;11.83;60.91;100898.19;5016077;28;20060;-44
2022/05/27 05:56:50;;;;;;;9.40;1.90;;;;;;;11.88;60.45;100913.78;5019204;28;20095;-47
2022/05/27 05:59:18;;;;;;;6.93;2.25;;;;;;;11.92;59.61;100918.13;5017863;28;20095;-44
2022/05/27 06:01:46;;;;;;;7.30;2.78;;;;;;;11.98;60.16;100919.91;5022644;28;20052;-50
2022/05/27 06:04:13;;;;;;;3.80;1.90;;;;;;;12.00;58.97;100920.78;5019447;28;20077;-45
2022/05/27 06:06:40;;;;;;;10.38;2.20;;;;;;;12.10;59.15;100928.66;5016850;28;20120;-48
2022/05/27 06:09:07;;;;;;;7.72;2.00;;;;;;;12.19;59.40;100931.28;5018296;28;20405;-45
2022/05/27 06:11:36;;;;;;;10.18;1.42;;;;;;;12.27;58.55;100931.31;5012980;28;20604;-48
2022/05/27 06:14:04;;;;;;;10.40;1.83;;;;;;;12.34;58.52;100920.09;5018811;28;20052;-46
2022/05/27 06:16:31;;;;;;;5.75;1.60;;;;;;;12.45;58.62;100926.22;5023318;28;20061;-46
2022/05/27 06:18:58;;;;;;;7.53;1.63;;;;;;;12.58;57.26;100914.13;5020373;28;20099;-48
2022/05/27 06:21:26;;;;;;;6.03;2.15;;;;;;;12.70;57.73;100923.66;5020601;28;20049;-52
2022/05/27 06:23:53;;;;;;;6.65;2.00;;;;;;;12.85;56.44;100921.97;5013286;28;20406;-52
2022/05/27 06:26:20;;;;;;;10.50;2.30;;;;;;;12.98;56.27;100926.31;5027380;28;20052;-46
2022/05/27 06:34:23;;;;;;;7.15;2.28;;;;;;;13.32;53.37;100935.91;5014193;28;20523;-47
2022/05/27 06:36:55;;;;;;;6.55;1.77;;;;;;;13.41;52.97;100937.59;5018690;28;20049;-48
2022/05/27 06:39:22;;;;;;;10.20;2.10;;;;;;;13.55;53.36;100939.38;5015629;28;20057;-45
2022/05/27 06:41:50;;;;;;;5.72;1.75;;;;;;;13.69;51.94;100948.06;5019409;28;20053;-47
2022/05/27 06:44:18;;;;;;;8.70;1.77;;;;;;;13.91;52.94;100948.00;5014921;28;20046;-47
2022/05/27 06:46:46;;;;;;;6.28;1.85;;;;;;;14.11;51.11;100952.28;5018664;28;20057;-47
2022/05/27 06:49:12;;;;;;;8.93;1.95;;;;;;;14.26;49.38;100959.22;5018002;28;20049;-46
2022/05/27 06:51:40;;;;;;;3.97;1.70;;;;;;;14.37;49.79;100961.78;5018619;28;20060;-48
2022/05/27 06:54:09;;;;;;;7.40;1.80;;;;;;;14.56;49.80;100962.53;5017299;28;20489;-52
2022/05/27 06:56:38;;;;;;;9.18;3.05;;;;;;;14.68;48.82;100955.53;5019837;28;21453;-48
2022/05/27 06:59:06;;;;;;;5.18;1.52;;;;;;;14.85;48.80;100956.34;5020031;28;20052;-49
2022/05/27 07:01:34;;;;;;;5.63;1.48;;;;;;;14.94;48.05;100957.16;5019350;28;20123;-51
2022/05/27 07:04:02;;;;;;;8.20;2.03;;;;;;;15.04;47.54;100964.06;5014542;28;20050;-49
2022/05/27 07:06:37;;;;;;;5.95;2.03;;;;;;;15.26;46.63;100984.78;5021408;28;20050;-50
2022/05/27 07:09:22;;;;;;;6.90;1.77;;;;;;;15.44;46.20;100977.69;5016717;28;20095;-52
2022/05/27 07:11:51;;;;;;;4.63;1.92;;;;;;;15.57;45.71;100978.47;5015677;28;20054;-50
2022/05/27 07:14:18;;;;;;;4.25;0.98;;;;;;;15.71;46.03;100991.41;5013786;28;20418;-54
2022/05/27 07:16:47;;;;;;;7.13;2.38;;;;;;;15.95;45.67;100985.09;5015182;28;20038;-50
2022/05/27 07:19:34;;;;;;;6.22;1.63;;;;;;;15.99;43.55;100985.94;5019716;28;20073;-49
2022/05/27 07:22:02;;;;;;;5.65;1.83;;;;;;;16.05;44.41;100985.88;5020496;28;20123;-51
2022/05/27 07:24:29;;;;;;;4.97;1.40;;;;;;;16.28;44.01;100987.38;5020085;28;20046;-50
2022/05/27 07:26:55;;;;;;;5.47;1.48;;;;;;;16.48;44.89;100983.66;5018296;28;20553;-47
2022/05/27 07:29:22;;;;;;;6.00;3.55;;;;;;;16.67;43.03;100982.53;5014016;28;20485;-50
2022/05/27 07:31:49;;;;;;;7.13;1.85;;;;;;;16.81;43.77;100984.09;5018949;28;20045;-54
2022/05/27 07:34:16;;;;;;;3.70;1.25;;;;;;;16.83;42.42;100984.94;5012601;28;20409;-48
2022/05/27 07:36:42;;;;;;;6.07;2.17;;;;;;;16.99;42.51;100989.97;5018728;28;20053;-49
2022/05/27 07:39:09;;;;;;;5.18;1.75;;;;;;;17.06;42.51;100999.47;5018307;28;20075;-48
2022/05/27 07:41:37;;;;;;;5.45;2.00;;;;;;;17.09;42.00;101002.03;5017744;28;20056;-52
2022/05/27 07:44:05;;;;;;;6.40;1.92;;;;;;;17.04;41.91;101011.69;5012029;28;20046;-50
2022/05/27 07:46:34;;;;;;;5.45;1.67;;;;;;;17.05;42.30;101000.31;5016402;28;20045;-49
2022/05/27 07:49:04;;;;;;;5.68;1.60;;;;;;;17.00;41.76;101008.25;5016553;28;20037;-48
2022/05/27 07:51:50;;;;;;;7.97;1.38;;;;;;;17.00;40.80;101008.25;5018203;28;20371;-51
2022/05/27 07:54:18;;;;;;;4.15;2.25;;;;;;;16.99;40.34;100998.66;5019854;28;20107;-52
2022/05/27 07:56:45;;;;;;;5.15;1.67;;;;;;;17.11;40.93;101000.28;5017984;28;20059;-47
2022/05/27 07:59:11;;;;;;;6.18;2.40;;;;;;;17.35;41.46;101000.78;5015546;28;20034;-50
2022/05/27 08:01:39;;;;;;;7.60;3.13;;;;;;;17.69;41.99;101002.84;5014340;28;20100;-50
2022/05/27 08:04:06;;;;;;;8.88;2.03;;;;;;;17.97;41.44;101006.75;5010846;28;20133;-46
2022/05/27 08:06:33;;;;;;;6.45;2.15;;;;;;;18.08;40.48;101017.03;5017420;28;20073;-54
2022/05/27 08:08:59;;;;;;;5.80;2.10;;;;;;;18.02;40.58;101020.63;5018473;28;20096;-53
2022/05/27 08:11:26;;;;;;;7.63;2.03;;;;;;;17.78;40.31;101016.66;5012346;28;20054;-51
2022/05/27 08:13:55;;;;;;;3.15;1.42;;;;;;;17.51;39.97;101013.63;5017806;28;20679;-48
2022/05/27 08:16:22;;;;;;;6.68;2.78;;;;;;;17.53;40.66;101011.88;5016566;28;20045;-54
2022/05/27 08:18:49;;;;;;;8.18;1.27;;;;;;;17.79;40.69;101007.91;5016031;28;20367;-52
2022/05/27 08:21:16;;;;;;;5.85;2.15;;;;;;;18.03;41.66;101011.84;5020062;28;20049;-49
2022/05/27 08:23:43;;;;;;;8.15;2.33;;;;;;;18.27;40.28;101000.97;5015146;28;20049;-54
2022/05/27 08:26:10;;;;;;;7.82;2.17;;;;;;;18.41;41.08;100996.28;5022741;28;20053;-52
2022/05/27 08:28:37;;;;;;;4.95;1.73;;;;;;;18.33;39.49;101003.47;5019192;28;20046;-51
2022/05/27 08:31:04;;;;;;;8.63;2.70;;;;;;;18.34;40.12;101015.69;5019883;28;20050;-51
2022/05/27 08:39:12;;;;;;;4.93;2.08;;;;;;;18.63;39.88;101022.09;5015697;28;20172;-53
2022/05/27 08:47:21;;;;;;;5.53;1.15;;;;;;;18.80;38.46;101006.00;5023163;27;20409;-50
2022/05/27 08:49:57;;;;;;;4.95;1.33;;;;;;;18.94;38.46;100999.56;5020219;28;20054;-49
2022/05/27 08:52:46;;;;;;;6.18;1.25;;;;;;;19.02;38.99;101006.38;5022044;28;20064;-52
2022/05/27 09:01:00;;;;;;;6.28;2.50;;;;;;;19.28;38.03;101019.81;5044951;27;20890;-49
2022/05/27 09:03:38;;;;;;;6.95;2.08;;;;;;;19.29;37.24;101020.69;5023784;28;20101;-51
2022/05/27 09:06:05;;;;;;;6.50;2.45;;;;;;;19.29;37.13;101021.56;5018664;28;20077;-51
2022/05/27 09:08:32;;;;;;;7.18;2.42;;;;;;;19.26;36.78;101035.63;5022008;28;20041;-55
2022/05/27 09:13:47;;;;;;;8.48;1.48;;;;;;;19.62;38.33;101044.44;5036031;28;20925;-49
2022/05/27 09:33:02;;;;;;;6.85;2.03;;;;;;;19.95;36.01;101030.44;5027153;28;20421;-51
2022/05/27 09:38:20;;;;;;;5.53;0.93;;;;;;;20.13;36.30;101026.50;5024012;27;20425;-49
2022/05/27 09:41:04;;;;;;;6.40;1.05;;;;;;;20.09;35.04;101024.88;5017008;28;20049;-50
2022/05/27 09:43:43;;;;;;;3.53;0.90;;;;;;;19.99;35.46;101033.00;5010836;28;20057;-50
2022/05/27 09:46:14;;;;;;;4.13;0.50;;;;;;;19.87;35.85;101035.91;5014142;28;20050;-51
2022/05/27 09:48:41;;;;;;;3.78;0.88;;;;;;;19.65;36.60;101039.94;5015475;28;20046;-48
2022/05/27 09:51:15;;;;;;;3.78;1.17;;;;;;;19.94;36.74;101034.84;5008021;28;20084;-50
2022/05/27 09:53:48;;;;;;;4.07;1.05;;;;;;;20.22;36.44;101043.78;5015756;28;21896;-52
2022/05/27 09:56:31;;;;;;;5.00;0.77;;;;;;;20.34;36.59;101047.84;5015529;28;20042;-51
2022/05/27 09:59:17;;;;;;;2.97;0.77;;;;;;;20.46;36.48;101042.25;5016979;28;20600;-49
2022/05/27 10:01:44;;;;;;;5.65;1.20;;;;;;;20.29;36.15;101040.97;5044967;28;20042;-54
2022/05/27 10:04:14;;;;;;;5.38;1.52;;;;;;;20.18;35.71;101032.50;5024053;28;20049;-51
2022/05/27 10:06:42;;;;;;;5.97;1.13;;;;;;;20.02;35.66;101025.03;5019492;28;20481;-54
2022/05/27 10:09:24;;;;;;;3.85;1.13;;;;;;;20.01;36.41;101020.69;5013351;28;20076;-50
2022/05/27 10:11:53;;;;;;;5.50;1.30;;;;;;;20.04;36.30;101017.94;5018290;28;20520;-56
2022/05/27 10:14:27;;;;;;;6.38;1.17;;;;;;;20.12;36.68;101019.50;5014741;28;20048;-55
2022/05/27 10:17:13;;;;;;;5.43;1.20;;;;;;;20.27;36.30;101018.25;5020822;28;20050;-54
2022/05/27 10:19:45;;;;;;;3.20;1.40;;;;;;;20.46;36.63;101015.94;5021965;28;20041;-49
2022/05/27 10:22:26;;;;;;;5.20;0.93;;;;;;;20.24;35.89;101031.47;5022519;28;20046;-51
2022/05/27 10:24:59;;;;;;;6.40;1.77;;;;;;;20.39;36.43;101038.06;5019093;28;20115;-51
2022/05/27 10:27:36;;;;;;;6.22;1.88;;;;;;;20.50;35.27;101032.50;5018928;28;20054;-51
2022/05/27 10:30:18;;;;;;;5.20;1.10;;;;;;;20.43;34.79;101016.00;5019285;28;20402;-48
2022/05/27 10:32:45;;;;;;;4.70;0.68;;;;;;;20.39;35.53;101030.16;5019235;28;20592;-51
2022/05/27 10:41:21;;;;;;;5.32;2.42;;;;;;;20.67;35.71;101014.44;5036865;27;20398;-51
2022/05/27 10:46:53;;;;;;;5.07;0.95;;;;;;;20.95;35.27;101023.31;5021900;27;20403;-49
2022/05/27 11:05:55;;;;;;;5.18;2.13;;;;;;;20.63;35.38;101006.69;5060415;28;20410;-52
2022/05/27 11:08:24;;;;;;;;;;;;;;;20.65;35.35;101010.13;5002266;27;20061;-48
2022/05/27 11:20:04;;;;;;;4.35;0.80;;;;;;;20.34;34.36;101005.75;5025180;28;20400;-50
2022/05/27 11:22:42;;;;;;;3.85;0.63;;;;;;;20.54;35.84;101019.19;5002049;28;20050;-48
2022/05/27 11:36:10;;;;;;;4.07;1.40;;;;;;;21.13;34.52;101028.91;5054637;28;20406;-46
2022/05/27 11:46:51;;;;;;;3.58;0.75;;;;;;;21.27;33.47;101028.47;5032502;28;20406;-48
2022/05/27 17:32:25;;;;;;;3.70;2.17;;;;;;;17.27;38.92;101089.06;5019672;27;20417;-49
2022/05/27 17:34:53;;;;;;;2.72;1.35;;;;;;;17.17;39.42;101089.19;5010175;28;20468;-47
2022/05/27 17:37:19;;;;;;;7.85;2.03;;;;;;;17.07;38.67;101098.91;4998926;28;20605;-46
2022/05/27 17:39:46;;;;;;;6.30;2.05;;;;;;;17.06;39.18;101091.94;5004370;28;20046;-47
2022/05/27 17:42:13;;;;;;;4.07;2.22;;;;;;;16.94;39.36;101092.06;5003928;28;20038;-46
2022/05/27 17:44:39;;;;;;;3.53;1.77;;;;;;;16.75;38.88;101096.66;5005170;28;20046;-47
2022/05/27 17:52:39;;;;;;;1.98;1.80;;;;;;;16.56;39.40;101081.19;5017611;28;20046;-49
2022/05/27 17:55:06;;;;;;;3.45;1.42;;;;;;;16.47;39.85;101076.03;5003665;28;20046;-50
2022/05/27 17:57:33;;;;;;;3.50;2.03;;;;;;;16.37;39.57;101084.00;5003427;28;20049;-51
2022/05/27 17:59:59;;;;;;;4.07;1.92;;;;;;;16.26;40.00;101094.56;5004826;28;20054;-50
2022/05/27 18:02:26;;;;;;;4.60;2.45;;;;;;;16.14;39.88;101090.31;5004172;28;20046;-48
2022/05/27 18:04:53;;;;;;;4.88;1.83;;;;;;;16.10;39.83;101090.34;4997858;28;20134;-48
2022/05/27 18:07:20;;;;;;;5.60;1.85;;;;;;;16.08;40.62;101103.44;4996640;28;20073;-49
2022/05/27 18:09:47;;;;;;;3.30;2.15;;;;;;;16.04;40.46;101104.31;4995927;28;20054;-48
2022/05/27 18:12:13;;;;;;;4.85;2.10;;;;;;;15.92;41.05;101107.88;4997223;28;20053;-46
2022/05/27 18:14:40;;;;;;;2.92;2.33;;;;;;;15.84;40.69;101100.09;4992156;28;20084;-50
2022/05/27 18:17:07;;;;;;;2.78;2.42;;;;;;;15.77;41.34;101108.88;4991493;28;20061;-45
2022/05/27 18:19:34;;;;;;;3.45;1.83;;;;;;;15.68;41.22;101108.03;4994268;28;20049;-48
2022/05/27 18:22:01;;;;;;;3.97;1.88;;;;;;;15.58;41.78;101111.63;4996175;28;20038;-47
2022/05/27 18:24:28;;;;;;;5.22;2.00;;;;;;;15.45;41.63;101102.13;5001610;28;20050;-44
2022/05/27 18:26:55;;;;;;;3.55;2.88;;;;;;;15.37;41.63;101112.63;4995059;28;20080;-44
2022/05/27 18:29:22;;;;;;;3.88;2.00;;;;;;;15.29;41.39;101113.53;4996980;28;20133;-47
2022/05/27 18:31:49;;;;;;;4.57;2.67;;;;;;;15.19;41.66;101119.66;4996808;28;20055;-46
2022/05/27 18:34:17;;;;;;;4.10;1.85;;;;;;;15.14;41.57;101127.50;4999273;28;20137;-45
2022/05/27 18:36:44;;;;;;;7.25;2.78;;;;;;;15.03;42.09;101124.09;4996714;28;20046;-47
2022/05/27 18:39:10;;;;;;;4.35;1.88;;;;;;;15.02;41.85;101127.56;4999286;28;20051;-47
2022/05/27 18:41:37;;;;;;;4.63;1.88;;;;;;;14.96;42.00;101130.19;5000996;28;20097;-46
2022/05/27 18:44:04;;;;;;;2.45;1.98;;;;;;;14.88;42.83;101130.22;4983322;28;20132;-46
2022/05/27 18:46:31;;;;;;;5.15;2.00;;;;;;;14.89;42.59;101127.59;4984991;28;20133;-45
2022/05/27 18:48:58;;;;;;;4.75;2.10;;;;;;;14.90;42.03;101129.34;4982717;28;20100;-46
2022/05/27 18:51:25;;;;;;;4.97;1.77;;;;;;;14.85;43.19;101130.22;4989677;28;20046;-47
2022/05/27 18:53:52;;;;;;;4.18;2.30;;;;;;;14.80;42.92;101132.88;4987833;28;20050;-48
2022/05/27 18:56:20;;;;;;;4.28;2.03;;;;;;;14.78;43.01;101129.38;4987240;28;20548;-44
2022/05/27 18:58:47;;;;;;;4.82;1.65;;;;;;;14.77;43.09;101132.88;4983409;28;20601;-44
2022/05/27 19:01:14;;;;;;;4.38;2.22;;;;;;;14.71;43.04;101127.63;4986076;28;20042;-48
2022/05/27 19:03:41;;;;;;;2.85;2.05;;;;;;;14.70;43.50;101128.50;4990749;28;20545;-47
2022/05/27 19:06:08;;;;;;;4.00;1.15;;;;;;;14.68;43.52;101132.84;4986034;28;20440;-45
2022/05/27 19:08:35;;;;;;;5.72;2.08;;;;;;;14.65;43.04;101138.94;4988890;28;20571;-50
2022/05/27 19:11:03;;;;;;;3.45;1.88;;;;;;;14.58;42.67;101143.31;4984900;28;20049;-46
2022/05/27 19:13:31;;;;;;;4.35;2.72;;;;;;;14.57;42.88;101144.19;4985538;28;20054;-45
2022/05/27 19:15:58;;;;;;;3.67;2.33;;;;;;;14.52;43.02;101145.91;4987546;28;20505;-44
2022/05/27 19:21:16;;;;;;;2.20;1.85;;;;;;;14.47;42.82;101152.88;4988419;28;20737;-48
2022/05/27 19:21:20;;;;;;;4.57;2.05;;;;;;;14.38;43.24;101146.81;4986729;28;20122;-47
2022/05/27 19:23:48;;;;;;;3.63;2.55;;;;;;;14.34;43.95;101150.28;4986831;28;20502;-48
2022/05/27 19:26:21;;;;;;;4.57;2.13;;;;;;;14.27;43.54;101153.75;4991171;28;20807;-46
2022/05/27 19:28:48;;;;;;;3.45;1.65;;;;;;;14.22;44.02;101150.31;4988037;28;20053;-49
2022/05/27 19:31:16;;;;;;;4.15;1.98;;;;;;;14.16;44.74;101150.28;4985635;28;20051;-48
2022/05/27 19:33:45;;;;;;;9.30;2.00;;;;;;;14.09;44.19;101145.06;4989279;28;20150;-44
2022/05/27 19:36:14;;;;;;;2.45;1.75;;;;;;;14.03;44.92;101142.47;4988393;28;20094;-46
2022/05/27 19:38:40;;;;;;;4.72;2.15;;;;;;;13.94;44.35;101132.03;4986580;28;20054;-46
2022/05/27 19:41:10;;;;;;;4.15;0.80;;;;;;;13.86;45.27;101138.13;4984581;28;20493;-45
2022/05/27 19:43:39;;;;;;;3.05;1.83;;;;;;;13.80;44.35;101130.31;4988614;28;20046;-46
2022/05/27 19:46:08;;;;;;;4.82;1.95;;;;;;;13.75;45.03;101134.66;4989555;28;20042;-48
2022/05/27 19:48:35;;;;;;;2.63;1.95;;;;;;;13.68;44.44;101138.94;4984802;28;20050;-45
2022/05/27 19:51:13;;;;;;;3.40;2.20;;;;;;;13.57;44.58;101138.94;4987984;28;20047;-47
2022/05/27 19:53:40;;;;;;;2.67;1.52;;;;;;;13.52;44.98;101138.06;4987324;28;20112;-47
2022/05/27 19:56:07;;;;;;;6.95;2.33;;;;;;;13.50;44.61;101150.19;4986426;28;20054;-44
2022/05/27 20:01:21;;;;;;;3.58;2.13;;;;;;;13.37;45.11;101149.25;4988657;28;20066;-45
2022/05/27 20:06:34;;;;;;;4.00;2.22;;;;;;;13.28;45.79;101155.31;4988811;28;20061;-49
2022/05/27 20:09:02;;;;;;;7.03;2.17;;;;;;;13.20;46.71;101154.38;4978790;28;20497;-47
2022/05/27 20:11:34;;;;;;;4.05;2.03;;;;;;;13.16;45.80;101155.22;4988005;28;20053;-49
2022/05/27 20:14:11;;;;;;;5.15;2.08;;;;;;;13.11;45.95;101157.84;4989601;28;20047;-44
2022/05/27 20:19:16;;;;;;;8.13;1.10;;;;;;;13.00;46.70;101170.78;5049338;27;20415;-47
2022/05/27 20:21:45;;;;;;;4.90;1.20;;;;;;;12.96;45.98;101169.00;5026502;28;20049;-46